createdAt,value
2022-09-24T00:01:16.046Z,6.00
2022-09-24T00:03:40.181Z,8.00
2022-09-24T00:06:07.726Z,7.80
2022-09-24T00:08:35.300Z,7.93
2022-09-24T00:11:02.825Z,7.13
2022-09-24T00:13:30.359Z,6.63
2022-09-24T00:15:57.949Z,6.50
2022-09-24T00:18:25.452Z,6.13
2022-09-24T00:20:53.761Z,5.50
2022-09-24T00:23:21.327Z,6.10
2022-09-24T00:26:06.799Z,6.23
2022-09-24T00:28:34.355Z,5.87
2022-09-24T00:31:04.914Z,5.00
2022-09-24T00:33:32.338Z,5.07
2022-09-24T00:35:59.916Z,6.47
2022-09-24T00:38:27.447Z,5.07
2022-09-24T00:40:54.971Z,4.97
2022-09-24T00:43:22.527Z,4.50
2022-09-24T00:45:50.061Z,5.63
2022-09-24T00:48:17.590Z,6.30
2022-09-24T00:50:45.160Z,6.28
2022-09-24T00:53:12.685Z,4.73
2022-09-24T00:55:40.987Z,4.77
2022-09-24T00:58:08.553Z,4.67
2022-09-24T01:00:36.209Z,5.27
2022-09-24T01:03:03.651Z,4.67
2022-09-24T01:05:31.215Z,5.30
2022-09-24T01:07:58.750Z,4.97
2022-09-24T01:10:50.537Z,4.87
2022-09-24T01:13:21.045Z,5.07
2022-09-24T01:15:48.601Z,5.80
2022-09-24T01:18:19.883Z,6.10
2022-09-24T01:20:50.145Z,5.27
2022-09-24T01:23:27.200Z,6.40
2022-09-24T01:25:57.640Z,5.80
2022-09-24T01:28:44.130Z,5.43
2022-09-24T01:31:11.685Z,5.40
2022-09-24T01:33:39.179Z,6.82
2022-09-24T01:36:06.742Z,5.40
2022-09-24T01:38:37.134Z,5.63
2022-09-24T01:41:04.648Z,5.47
2022-09-24T01:43:32.233Z,5.37
2022-09-24T01:45:59.747Z,5.43
2022-09-24T01:48:27.281Z,6.10
2022-09-24T01:51:10.284Z,5.70
2022-09-24T01:53:46.633Z,5.33
2022-09-24T01:56:14.188Z,5.43
2022-09-24T01:58:41.741Z,5.50
2022-09-24T02:01:09.342Z,5.27
2022-09-24T02:03:36.794Z,5.67
2022-09-24T02:06:10.048Z,6.00
2022-09-24T02:08:40.429Z,5.43
2022-09-24T02:11:11.652Z,5.40
2022-09-24T02:13:39.208Z,5.30
2022-09-24T02:16:06.790Z,5.60
2022-09-24T02:18:34.291Z,6.72
2022-09-24T02:21:01.832Z,5.60
2022-09-24T02:23:29.366Z,5.53
2022-09-24T02:25:57.682Z,5.27
2022-09-24T02:28:25.253Z,4.90
2022-09-24T02:30:52.790Z,5.40
2022-09-24T02:33:38.735Z,4.80
2022-09-24T02:36:06.270Z,4.67
2022-09-24T02:38:33.805Z,5.43
2022-09-24T02:41:01.369Z,5.63
2022-09-24T02:43:28.913Z,5.10
2022-09-24T02:45:56.440Z,5.23
2022-09-24T02:48:24.790Z,5.73
2022-09-24T02:50:52.315Z,5.67
2022-09-24T02:53:19.849Z,6.72
2022-09-24T02:55:48.191Z,5.93
2022-09-24T02:58:15.737Z,5.63
2022-09-24T03:00:43.282Z,6.75
2022-09-24T03:03:10.956Z,5.43
2022-09-24T03:05:38.410Z,5.53
2022-09-24T03:08:05.945Z,5.40
2022-09-24T03:10:33.498Z,5.40
2022-09-24T03:13:01.024Z,5.87
2022-09-24T03:15:29.327Z,4.90
2022-09-24T03:17:56.871Z,5.97
2022-09-24T03:20:25.175Z,5.30
2022-09-24T03:22:52.698Z,5.43
2022-09-24T03:25:21.025Z,5.83
2022-09-24T03:27:48.576Z,5.40
2022-09-24T03:30:34.356Z,5.20
2022-09-24T03:33:01.920Z,6.10
2022-09-24T03:35:29.444Z,6.70
2022-09-24T03:37:57.777Z,6.33
2022-09-24T03:40:25.406Z,6.03
2022-09-24T03:42:52.877Z,5.73
2022-09-24T03:45:20.429Z,6.20
2022-09-24T03:47:47.965Z,5.37
2022-09-24T03:50:15.509Z,6.20
2022-09-24T03:52:43.833Z,5.93
2022-09-24T03:55:11.367Z,5.97
2022-09-24T03:57:38.911Z,6.13
2022-09-24T04:00:07.283Z,5.90
2022-09-24T04:02:35.661Z,5.90
2022-09-24T04:05:03.118Z,5.63
2022-09-24T04:07:31.444Z,6.47
2022-09-24T04:09:58.988Z,5.37
2022-09-24T04:12:26.502Z,5.90
2022-09-24T04:14:54.825Z,5.03
2022-09-24T04:17:22.359Z,5.90
2022-09-24T04:19:49.884Z,5.60
2022-09-24T04:22:17.459Z,6.33
2022-09-24T04:24:45.771Z,6.13
2022-09-24T04:27:13.326Z,5.63
2022-09-24T04:29:40.900Z,6.10
2022-09-24T04:32:08.424Z,5.53
2022-09-24T04:34:36.758Z,6.10
2022-09-24T04:37:05.306Z,5.53
2022-09-24T04:39:32.850Z,5.73
2022-09-24T04:42:00.399Z,5.80
2022-09-24T04:44:28.708Z,5.27
2022-09-24T04:46:56.284Z,6.20
2022-09-24T04:49:24.526Z,5.80
2022-09-24T04:51:52.100Z,6.07
2022-09-24T04:54:19.625Z,5.83
2022-09-24T04:56:47.918Z,5.70
2022-09-24T04:59:15.806Z,5.83
2022-09-24T05:01:43.441Z,5.97
2022-09-24T05:04:11.624Z,5.50
2022-09-24T05:06:39.218Z,6.00
2022-09-24T05:09:10.387Z,5.63
2022-09-24T05:11:34.279Z,5.70
2022-09-24T05:14:02.610Z,5.43
2022-09-24T05:16:30.198Z,5.33
2022-09-24T05:18:57.754Z,5.73
2022-09-24T05:21:25.323Z,4.80
2022-09-24T05:23:52.867Z,5.63
2022-09-24T05:26:38.617Z,5.17
2022-09-24T05:29:06.145Z,6.77
2022-09-24T05:31:34.484Z,6.50
2022-09-24T05:34:02.009Z,6.37
2022-09-24T05:36:29.534Z,6.50
2022-09-24T05:38:57.851Z,5.73
2022-09-24T05:41:25.395Z,5.90
2022-09-24T05:43:52.916Z,6.97
2022-09-24T05:46:21.277Z,7.80
2022-09-24T05:48:48.812Z,8.20
2022-09-24T05:51:16.348Z,5.60
2022-09-24T05:53:43.891Z,6.40
2022-09-24T05:56:11.456Z,6.17
2022-09-24T05:58:38.993Z,6.43
2022-09-24T06:01:07.294Z,6.70
2022-09-24T06:03:34.878Z,6.40
2022-09-24T06:06:02.440Z,6.10
2022-09-24T06:08:29.957Z,6.30
2022-09-24T06:11:01.234Z,6.40
2022-09-24T06:13:28.759Z,6.57
2022-09-24T06:16:02.347Z,5.93
2022-09-24T06:18:29.882Z,5.70
2022-09-24T06:20:57.443Z,7.40
2022-09-24T06:23:24.972Z,12.50
2022-09-24T06:25:52.547Z,10.73
2022-09-24T06:28:20.089Z,10.60
2022-09-24T06:30:47.614Z,6.07
2022-09-24T06:33:15.986Z,5.83
2022-09-24T06:35:44.297Z,6.30
2022-09-24T06:38:11.863Z,7.63
2022-09-24T06:40:40.200Z,5.93
2022-09-24T06:43:07.721Z,6.20
2022-09-24T06:45:35.236Z,6.93
2022-09-24T06:48:02.824Z,6.43
2022-09-24T06:50:30.347Z,5.87
2022-09-24T06:52:57.871Z,6.13
2022-09-24T06:55:26.635Z,6.20
2022-09-24T06:58:09.264Z,6.97
2022-09-24T07:00:36.917Z,6.30
2022-09-24T07:03:05.140Z,6.70
2022-09-24T07:05:32.677Z,6.17
2022-09-24T07:08:00.249Z,5.40
2022-09-24T07:10:28.562Z,5.50
2022-09-24T07:12:56.097Z,5.90
2022-09-24T07:15:23.919Z,6.40
2022-09-24T07:17:51.462Z,6.10
2022-09-24T07:20:19.012Z,5.40
2022-09-24T07:22:46.603Z,5.33
2022-09-24T07:25:14.138Z,5.77
2022-09-24T07:27:41.672Z,6.72
2022-09-24T07:30:10.556Z,6.37
2022-09-24T07:32:38.090Z,5.90
2022-09-24T07:35:06.610Z,5.70
2022-09-24T07:37:34.215Z,5.47
2022-09-24T07:40:01.749Z,5.60
2022-09-24T07:42:29.282Z,4.73
2022-09-24T07:44:56.848Z,5.47
2022-09-24T07:47:24.393Z,4.47
2022-09-24T07:49:51.926Z,5.03
2022-09-24T07:52:20.289Z,5.00
2022-09-24T07:54:47.825Z,4.33
2022-09-24T07:57:15.369Z,5.43
2022-09-24T07:59:42.952Z,4.50
2022-09-24T08:02:13.226Z,6.60
2022-09-24T08:04:40.729Z,7.55
2022-09-24T08:07:08.326Z,10.40
2022-09-24T08:09:36.617Z,7.10
2022-09-24T08:12:04.152Z,6.90
2022-09-24T08:14:31.758Z,6.73
2022-09-24T08:16:59.290Z,5.20
2022-09-24T08:19:26.827Z,5.97
2022-09-24T08:21:55.176Z,5.27
2022-09-24T08:24:22.701Z,5.03
2022-09-24T08:26:50.228Z,5.30
2022-09-24T08:29:18.579Z,5.40
2022-09-24T08:31:46.174Z,5.43
2022-09-24T08:34:13.637Z,5.57
2022-09-24T08:36:43.119Z,6.03
2022-09-24T08:39:08.795Z,5.63
2022-09-24T08:41:48.156Z,8.77
2022-09-24T08:44:15.690Z,5.37
2022-09-24T08:47:04.335Z,5.37
2022-09-24T08:49:32.598Z,7.67
2022-09-24T08:52:06.060Z,5.57
2022-09-24T08:54:34.403Z,4.87
2022-09-24T08:57:01.940Z,5.07
2022-09-24T08:59:32.507Z,5.50
2022-09-24T09:02:21.410Z,5.73
2022-09-24T09:05:06.801Z,5.40
2022-09-24T09:07:40.077Z,5.33
2022-09-24T09:10:10.577Z,5.10
2022-09-24T09:12:38.110Z,4.53
2022-09-24T09:15:05.693Z,5.13
2022-09-24T09:17:55.330Z,5.07
2022-09-24T09:20:22.888Z,5.50
2022-09-24T09:22:50.435Z,5.97
2022-09-24T09:25:27.832Z,6.83
2022-09-24T09:28:01.257Z,5.60
2022-09-24T09:30:28.770Z,5.03
2022-09-24T09:33:20.842Z,4.97
2022-09-24T09:35:48.385Z,7.80
2022-09-24T09:38:30.995Z,4.60
2022-09-24T09:41:04.308Z,4.77
2022-09-24T09:43:32.534Z,5.53
2022-09-24T09:46:11.736Z,8.60
2022-09-24T09:48:42.226Z,7.67
2022-09-24T09:51:09.771Z,5.80
2022-09-24T09:53:37.354Z,5.90
2022-09-24T09:56:04.888Z,6.07
2022-09-24T09:58:35.339Z,5.03
2022-09-24T10:01:14.905Z,15.70
2022-09-24T10:03:45.444Z,6.03
2022-09-24T10:06:12.939Z,6.05
2022-09-24T10:08:40.535Z,6.20
2022-09-24T10:11:08.067Z,5.47
2022-09-24T10:13:35.592Z,5.10
2022-09-24T10:16:04.875Z,4.77
2022-09-24T10:18:38.370Z,5.00
2022-09-24T10:21:05.905Z,5.00
2022-09-24T10:23:36.375Z,4.83
2022-09-24T10:26:04.677Z,4.77
2022-09-24T10:28:50.161Z,5.17
2022-09-24T10:31:23.280Z,4.90
2022-09-24T10:33:50.797Z,4.97
2022-09-24T10:36:20.933Z,4.87
2022-09-24T10:38:48.453Z,5.13
2022-09-24T10:41:25.539Z,5.53
2022-09-24T10:43:53.881Z,4.70
2022-09-24T10:46:26.999Z,4.73
2022-09-24T10:49:16.854Z,5.63
2022-09-24T10:51:50.748Z,5.30
2022-09-24T10:54:42.742Z,5.13
2022-09-24T10:57:12.847Z,4.73
2022-09-24T10:59:43.886Z,5.00
2022-09-24T11:02:21.292Z,4.83
2022-09-24T11:04:51.540Z,4.70
2022-09-24T11:07:21.545Z,4.97
2022-09-24T11:09:49.100Z,4.43
2022-09-24T11:12:22.631Z,5.00
2022-09-24T11:15:08.846Z,4.83
2022-09-24T11:17:45.210Z,4.50
2022-09-24T11:20:15.452Z,4.73
2022-09-24T11:22:52.263Z,5.22
2022-09-24T11:25:31.625Z,5.43
2022-09-24T11:28:29.553Z,5.20
2022-09-24T11:31:24.362Z,5.60
2022-09-24T11:34:07.732Z,5.10
2022-09-24T11:36:41.241Z,6.03
2022-09-24T11:39:26.901Z,5.73
2022-09-24T11:42:06.154Z,6.10
2022-09-24T11:44:55.161Z,6.72
2022-09-24T11:47:40.954Z,6.60
2022-09-24T11:50:14.256Z,6.43
2022-09-24T11:52:41.791Z,6.07
2022-09-24T11:55:13.036Z,6.00
2022-09-24T11:57:40.572Z,5.77
2022-09-24T12:00:08.275Z,6.30
2022-09-24T12:02:38.404Z,6.03
2022-09-24T12:05:42.796Z,6.40
2022-09-24T12:08:12.805Z,6.67
2022-09-24T12:10:44.060Z,6.10
2022-09-24T12:13:30.351Z,6.10
2022-09-24T12:16:01.177Z,6.13
2022-09-24T12:18:44.827Z,6.17
2022-09-24T12:21:13.139Z,6.17
2022-09-24T12:23:40.695Z,5.90
2022-09-24T12:26:08.348Z,6.33
2022-09-24T12:29:03.118Z,6.70
2022-09-24T12:32:01.364Z,6.93
2022-09-24T12:34:50.261Z,6.13
2022-09-24T12:37:17.835Z,6.83
2022-09-24T12:40:00.353Z,7.70
2022-09-24T12:42:27.920Z,6.77
2022-09-24T12:44:57.069Z,7.23
2022-09-24T12:47:25.372Z,6.90
2022-09-24T12:50:02.518Z,7.07
2022-09-24T12:52:41.984Z,7.50
2022-09-24T12:55:25.147Z,7.62
2022-09-24T12:58:07.499Z,7.23
2022-09-24T13:00:43.848Z,7.40
2022-09-24T13:05:45.542Z,8.50
2022-09-24T13:08:22.145Z,7.43
2022-09-24T13:10:58.669Z,7.50
2022-09-24T13:13:28.862Z,7.83
2022-09-24T13:16:05.163Z,8.20
2022-09-24T13:18:32.625Z,8.00
2022-09-24T13:21:03.576Z,8.37
2022-09-24T13:23:31.161Z,8.93
2022-09-24T13:25:58.696Z,7.77
2022-09-24T13:28:37.627Z,8.33
2022-09-24T13:31:02.775Z,8.07
2022-09-24T13:33:33.943Z,7.43
2022-09-24T13:36:01.477Z,8.37
2022-09-24T13:38:34.476Z,9.23
2022-09-24T13:41:02.001Z,9.73
2022-09-24T13:43:41.558Z,8.67
2022-09-24T13:46:09.125Z,8.80
2022-09-24T13:48:37.367Z,9.13
2022-09-24T13:51:04.930Z,9.10
2022-09-24T13:53:41.253Z,9.10
2022-09-24T13:56:14.259Z,10.17
2022-09-24T13:58:41.801Z,13.20
2022-09-24T14:01:16.264Z,10.47
2022-09-24T14:03:56.516Z,9.33
2022-09-24T14:06:24.069Z,10.33
2022-09-24T14:08:51.623Z,9.37
2022-09-24T14:11:19.959Z,11.00
2022-09-24T14:13:47.499Z,9.60
2022-09-24T14:16:23.921Z,10.85
2022-09-24T14:19:03.409Z,11.55
2022-09-24T14:21:40.056Z,9.93
2022-09-24T14:24:07.595Z,9.63
2022-09-24T14:26:37.588Z,10.00
2022-09-24T14:29:08.384Z,10.70
2022-09-24T14:31:35.949Z,9.20
2022-09-24T14:34:03.434Z,9.10
2022-09-24T14:36:31.763Z,9.67
2022-09-24T14:38:59.297Z,9.87
2022-09-24T14:41:26.813Z,8.83
2022-09-24T14:43:54.387Z,8.97
2022-09-24T14:46:22.794Z,10.37
2022-09-24T14:48:50.235Z,9.93
2022-09-24T14:51:27.558Z,9.50
2022-09-24T14:54:03.728Z,9.47
2022-09-24T14:56:31.281Z,10.27
2022-09-24T14:58:58.835Z,9.87
2022-09-24T15:01:32.415Z,10.57
2022-09-24T15:04:02.563Z,11.47
2022-09-24T15:06:30.143Z,11.10
2022-09-24T15:09:03.425Z,11.87
2022-09-24T15:11:33.621Z,11.27
2022-09-24T15:14:01.205Z,11.27
2022-09-24T15:16:34.757Z,11.00
2022-09-24T15:19:11.799Z,11.57
2022-09-24T15:21:39.259Z,10.90
2022-09-24T15:24:06.850Z,11.27
2022-09-24T15:26:34.386Z,11.90
2022-09-24T15:29:02.065Z,11.87
2022-09-24T15:31:29.549Z,11.80
2022-09-24T15:33:58.035Z,12.13
2022-09-24T15:36:25.588Z,13.93
2022-09-24T15:38:53.883Z,12.47
2022-09-24T15:41:21.476Z,12.20
2022-09-24T15:43:49.024Z,12.30
2022-09-24T15:46:16.622Z,11.10
2022-09-24T15:48:44.159Z,12.40
2022-09-24T15:51:15.429Z,12.70
2022-09-24T15:53:39.239Z,12.37
2022-09-24T15:56:06.892Z,14.20
2022-09-24T15:58:34.447Z,12.07
2022-09-24T16:01:01.991Z,11.93
2022-09-24T16:03:29.604Z,12.33
2022-09-24T16:05:57.139Z,12.63
2022-09-24T16:08:24.683Z,15.43
2022-09-24T16:10:52.269Z,13.53
2022-09-24T16:13:19.814Z,13.40
2022-09-24T16:15:47.406Z,15.63
2022-09-24T16:18:14.965Z,13.33
2022-09-24T16:20:42.564Z,12.93
2022-09-24T16:23:13.545Z,13.13
2022-09-24T16:25:41.139Z,13.43
2022-09-24T16:28:08.674Z,12.37
2022-09-24T16:30:38.479Z,11.60
2022-09-24T16:33:03.822Z,11.43
2022-09-24T16:35:32.133Z,14.38
2022-09-24T16:37:59.679Z,11.20
2022-09-24T16:40:27.317Z,12.67
2022-09-24T16:42:54.808Z,13.20
2022-09-24T16:45:22.418Z,12.80
2022-09-24T16:47:50.704Z,13.73
2022-09-24T16:50:18.229Z,14.10
2022-09-24T16:52:45.767Z,15.73
2022-09-24T16:55:13.339Z,14.70
2022-09-24T16:57:40.893Z,13.40
2022-09-24T17:00:08.591Z,14.43
2022-09-24T17:02:36.208Z,13.63
2022-09-24T17:05:03.704Z,13.10
2022-09-24T17:07:31.227Z,15.93
2022-09-24T17:10:13.865Z,14.30
2022-09-24T17:12:44.248Z,14.70
2022-09-24T17:15:11.822Z,13.97
2022-09-24T17:17:48.563Z,14.40
2022-09-24T17:20:07.049Z,13.40
2022-09-24T17:22:34.584Z,14.10
2022-09-24T17:25:02.178Z,13.67
2022-09-24T17:27:29.702Z,13.50
2022-09-24T17:29:57.305Z,12.90
2022-09-24T17:32:25.629Z,15.60
2022-09-24T17:34:53.922Z,14.77
2022-09-24T17:37:21.453Z,15.33
2022-09-24T17:39:49.825Z,16.33
2022-09-24T17:42:17.349Z,15.57
2022-09-24T17:44:44.905Z,15.13
2022-09-24T17:47:13.463Z,16.27
2022-09-24T17:49:41.009Z,19.80
2022-09-24T17:52:09.311Z,16.63
2022-09-24T17:54:36.903Z,16.53
2022-09-24T17:57:04.439Z,15.83
2022-09-24T17:59:31.963Z,14.80
2022-09-24T18:01:59.628Z,15.20
2022-09-24T18:04:27.092Z,15.03
2022-09-24T18:06:54.638Z,13.60
2022-09-24T18:09:22.999Z,14.70
2022-09-24T18:11:51.311Z,13.80
2022-09-24T18:14:21.635Z,12.67
2022-09-24T18:16:52.096Z,15.10
2022-09-24T18:19:19.638Z,19.77
2022-09-24T18:21:47.181Z,17.23
2022-09-24T18:24:14.774Z,20.77
2022-09-24T18:26:42.321Z,20.03
2022-09-24T18:29:13.042Z,18.73
2022-09-24T18:31:40.575Z,17.87
2022-09-24T18:34:08.087Z,20.00
2022-09-24T18:36:38.249Z,22.73
2022-09-24T18:39:05.936Z,19.10
2022-09-24T18:41:33.380Z,21.43
2022-09-24T18:44:00.930Z,20.50
2022-09-24T18:46:29.318Z,18.97
2022-09-24T18:48:56.808Z,17.87
2022-09-24T18:51:24.372Z,21.67
2022-09-24T18:53:54.715Z,21.53
2022-09-24T18:56:22.269Z,18.57
2022-09-24T18:58:49.792Z,16.43
2022-09-24T19:01:17.538Z,16.90
2022-09-24T19:03:44.940Z,16.23
2022-09-24T19:06:12.496Z,15.80
2022-09-24T19:08:40.089Z,19.35
2022-09-24T19:11:08.402Z,20.12
2022-09-24T19:13:35.986Z,18.40
2022-09-24T19:16:06.660Z,16.07
2022-09-24T19:18:34.148Z,16.47
2022-09-24T19:21:01.685Z,16.53
2022-09-24T19:23:30.032Z,16.50
2022-09-24T19:26:00.024Z,16.93
2022-09-24T19:28:27.535Z,20.70
2022-09-24T19:30:55.999Z,17.97
2022-09-24T19:33:24.229Z,17.37
2022-09-24T19:35:57.544Z,17.27
2022-09-24T19:38:28.082Z,17.30
2022-09-24T19:41:01.633Z,19.50
2022-09-24T19:43:29.186Z,19.23
2022-09-24T19:45:56.806Z,17.17
2022-09-24T19:48:24.344Z,18.77
2022-09-24T19:50:51.879Z,17.50
2022-09-24T19:53:19.483Z,17.53
2022-09-24T19:55:47.028Z,18.27
2022-09-24T19:58:14.573Z,19.03
2022-09-24T20:00:42.157Z,20.53
2022-09-24T20:03:09.766Z,18.77
2022-09-24T20:05:37.256Z,20.13
2022-09-24T20:08:05.813Z,19.57
2022-09-24T20:10:33.368Z,19.63
2022-09-24T20:13:00.903Z,18.73
2022-09-24T20:15:29.301Z,17.17
2022-09-24T20:17:56.797Z,17.53
2022-09-24T20:20:24.344Z,17.27
2022-09-24T20:22:51.939Z,17.77
2022-09-24T20:25:19.483Z,17.53
2022-09-24T20:27:52.927Z,17.50
2022-09-24T20:30:23.605Z,17.63
2022-09-24T20:32:51.245Z,19.60
2022-09-24T20:35:18.700Z,21.83
2022-09-24T20:37:46.275Z,15.70
2022-09-24T20:40:13.860Z,14.20
2022-09-24T20:42:41.373Z,14.07
2022-09-24T20:45:09.025Z,14.87
2022-09-24T20:47:36.581Z,14.77
2022-09-24T20:50:04.124Z,15.47
2022-09-24T20:52:32.773Z,15.50
2022-09-24T20:55:00.268Z,14.57
2022-09-24T20:57:27.813Z,13.93
2022-09-24T20:59:55.396Z,14.30
2022-09-24T21:02:22.973Z,14.60
2022-09-24T21:04:51.244Z,16.23
2022-09-24T21:07:18.839Z,16.40
2022-09-24T21:09:46.385Z,16.03
2022-09-24T21:12:13.942Z,15.63
2022-09-24T21:14:41.502Z,16.03
2022-09-24T21:17:09.058Z,16.93
2022-09-24T21:19:36.608Z,16.00
2022-09-24T21:22:04.150Z,15.10
2022-09-24T21:24:31.852Z,14.13
2022-09-24T21:26:59.997Z,16.20
2022-09-24T21:29:27.600Z,15.13
2022-09-24T21:31:55.135Z,15.20
2022-09-24T21:34:22.690Z,13.97
2022-09-24T21:36:50.255Z,14.13
2022-09-24T21:39:20.913Z,14.53
2022-09-24T21:41:48.445Z,15.00
2022-09-24T21:44:16.020Z,14.80
2022-09-24T21:46:43.564Z,12.53
2022-09-24T21:49:11.100Z,11.80
2022-09-24T21:51:38.672Z,13.10
2022-09-24T21:54:06.275Z,12.93
2022-09-24T21:56:33.752Z,12.47
2022-09-24T21:59:02.119Z,12.40
2022-09-24T22:01:32.308Z,11.53
2022-09-24T22:04:00.544Z,12.53
2022-09-24T22:06:28.110Z,12.80
2022-09-24T22:08:55.667Z,13.47
2022-09-24T22:11:23.200Z,13.80
2022-09-24T22:13:51.550Z,14.37
2022-09-24T22:16:19.169Z,14.23
2022-09-24T22:18:46.651Z,13.97
2022-09-24T22:21:14.215Z,17.62
2022-09-24T22:23:41.757Z,19.00
2022-09-24T22:26:09.299Z,15.23
2022-09-24T22:28:36.902Z,14.67
2022-09-24T22:31:04.567Z,15.30
2022-09-24T22:33:50.219Z,15.40
2022-09-24T22:36:17.782Z,15.30
2022-09-24T22:38:45.306Z,20.62
2022-09-24T22:41:12.891Z,17.23
2022-09-24T22:43:40.445Z,15.03
2022-09-24T22:46:08.056Z,15.20
2022-09-24T22:48:35.533Z,15.03
2022-09-24T22:51:03.866Z,14.77
2022-09-24T22:53:31.382Z,15.57
2022-09-24T22:56:10.997Z,14.27
2022-09-24T22:58:38.531Z,15.30
2022-09-24T23:01:11.783Z,15.47
2022-09-24T23:03:39.337Z,14.23
2022-09-24T23:06:06.876Z,14.07
2022-09-24T23:08:35.193Z,13.40
2022-09-24T23:11:11.891Z,13.50
2022-09-24T23:13:39.436Z,15.67
2022-09-24T23:16:12.467Z,15.60
2022-09-24T23:18:40.838Z,14.60
2022-09-24T23:21:08.393Z,14.87
2022-09-24T23:23:35.915Z,15.90
2022-09-24T23:26:06.522Z,18.48
2022-09-24T23:28:34.056Z,15.93
2022-09-24T23:31:02.415Z,14.77
2022-09-24T23:33:33.204Z,15.30
2022-09-24T23:36:00.732Z,15.37
2022-09-24T23:38:29.033Z,14.77
2022-09-24T23:40:56.653Z,15.10
2022-09-24T23:43:24.129Z,15.33
2022-09-24T23:45:51.699Z,15.47
2022-09-24T23:48:19.287Z,17.13
2022-09-24T23:50:46.813Z,16.23
2022-09-24T23:53:15.114Z,16.17
2022-09-24T23:55:42.670Z,15.83
2022-09-24T23:58:10.206Z,15.47
